フランクフルト の空港の天気 - METARとTAF

フランクフルト国際空港 ( EDDF / FRA ) - ドイツ フランクフルト・アム・マイン
飛行場実況気象(Metar)
観測時間10/22 13:50 CEST (10/22 11:50 UTC)
風向・風速南 5m/s
視程10km以上
天気現象
少しの雲 雲底高度 1100m
気温20℃
湿度56%
気圧1014hPa
METAREDDF 221150Z 19009KT 160V220 9999 FEW036 20/11 Q1014 NOSIG
過去の天気等 Google飛行場航空写真 Wunderground天気予報

過去48時間のMETAR

飛行場予報(TAF)
発表時間: 10/22 13:00 CEST (10/22 11:00 UTC)
予報対象時間: 22日14時 CEST ~ 23日20時 CEST
風向・風速南南西 4m/s
視程10km以上
なし
22日20時 CEST ~ 23日2時 CEST に一時的に
天気現象しゅう雨
全天の8割程度の積乱雲 雲底高度 910m
23日0時 CEST ~ 23日2時 CEST に徐々に
全天の8割程度の雲 雲底高度 910m
23日2時 CEST ~ 23日17時 CEST に一時的に
天気現象
全天の8割程度の雲 雲底高度 430m
23日17時 CEST ~ 23日20時 CEST に 確率 40% で一時的に
天気現象しゅう雨
全天の8割程度の積乱雲 雲底高度 760m
TAF EDDF 221100Z 2212/2318 20008KT CAVOK
TEMPO 2218/2224 SHRA BKN030CB
BECMG 2222/2224 BKN030
TEMPO 2300/2315 RA BKN014
PROB40 TEMPO 2315/2318 SHRA BKN025CB